Terminal Aerodrome Forecast
Issued by NWS

Home | Current Version | Previous Version | Graphics & Text | Print | Product List | Glossary On
Versions: 1 2 3 4 5 6 7 8 9 10 11 12 13 14 15 16 17 18 19 20 21 22 23 24 25
146
FTUS43 KLOT 261238 AAA
TAFDPA
TAF AMD
KDPA 261238Z 2613/2712 17012G18KT P6SM SCT050 BKN250
     FM261500 19015G23KT P6SM SCT025 BKN050
     FM262200 20012KT 6SM SHRA SCT020 OVC035
      TEMPO 2622/2702 3SM TSRA SCT012 OVC020CB
     FM270200 17010KT 2SM RA BR VCTS SCT008 OVC015CB
     FM270600 25010KT 5SM SHRA OVC008=

USA.gov is the U.S. government's official web portal to all federal, state and local government web resources and services.